Time;durP1;ratioP1;P1;durP2;ratioP2;P2;SDS_P1;SDS_P2;PMS_P1;PMS_P2;Temp;Humidity;BMP_temperature;BMP_pressure;BME280_temperature;BME280_humidity;BME280_pressure;Samples;Min_cycle;Max_cycle;Signal;HPM_P1;HPM_P2
2022/01/27 00:03:14;;;;;;;;;;;;;;;-2.68;71.08;95945.44;5074121;28;1040;-50
2022/01/27 00:05:46;;;;;;;;;;;;;;;-2.65;71.30;95942.72;5074379;28;977;-50
2022/01/27 00:08:17;;;;;;;;;;;;;;;-2.71;71.56;95935.13;5073821;28;1120;-50
2022/01/27 00:10:53;;;;;;;;;;;;;;;-2.61;71.11;95927.75;5074100;28;1905;-51
2022/01/27 00:13:24;;;;;;;;;;;;;;;-2.55;70.58;95937.97;5073921;28;985;-51
2022/01/27 00:15:59;;;;;;;;;;;;;;;-2.63;71.73;95940.03;5074201;28;961;-51
2022/01/27 00:18:25;;;;;;;;;;;;;;;-2.55;71.26;95933.56;5073782;28;1040;-51
2022/01/27 00:20:52;;;;;;;;;;;;;;;-2.67;72.05;95928.84;5073773;28;1053;-51
2022/01/27 00:23:18;;;;;;;;;;;;;;;-2.71;71.96;95937.72;5073765;28;1055;-51
2022/01/27 00:25:44;;;;;;;;;;;;;;;-2.85;72.19;95930.41;5073674;28;1037;-51
2022/01/27 00:28:10;;;;;;;;;;;;;;;-2.85;72.43;95935.66;5073293;28;1036;-51
2022/01/27 00:34:03;;;;;;;;;;;;;;;-2.81;71.78;95925.91;5073659;28;520;-51
2022/01/27 00:36:32;;;;;;;;;;;;;;;-2.82;72.13;95932.91;5073653;28;1213;-50
2022/01/27 00:38:58;;;;;;;;;;;;;;;-2.87;72.54;95932.25;5073145;28;1057;-51
2022/01/27 00:41:25;;;;;;;;;;;;;;;-2.88;72.34;95935.78;5073329;28;921;-51
2022/01/27 00:43:51;;;;;;;;;;;;;;;-2.84;72.48;95939.97;5073298;28;1033;-51
2022/01/27 00:46:18;;;;;;;;;;;;;;;-2.94;72.73;95941.25;5073588;28;1009;-51
2022/01/27 00:48:45;;;;;;;;;;;;;;;-2.85;72.26;95942.66;5073431;28;985;-50
2022/01/27 00:51:14;;;;;;;;;;;;;;;-2.80;72.21;95945.94;5073200;28;1902;-51
2022/01/27 00:56:37;;;;;;;;;;;;;;;-2.82;72.39;95937.31;5073114;28;1148;-51
2022/01/27 01:01:47;;;;;;;;;;;;;;;-2.77;72.69;95932.72;5073001;28;1106;-51
2022/01/27 01:04:13;;;;;;;;;;;;;;;-2.59;71.66;95931.16;5072913;28;1120;-50
2022/01/27 01:06:43;;;;;;;;;;;;;;;-2.53;71.67;95928.25;5073155;28;1124;-51
2022/01/27 01:10:02;;;;;;;;;;;;;;;-2.68;72.27;95934.97;5072985;28;1044;-50
2022/01/27 01:17:28;;;;;;;;;;;;;;;-2.72;72.51;95925.53;5073199;28;1033;-50
2022/01/27 01:33:10;;;;;;;;;;;;;;;-2.48;72.44;95912.38;5073205;28;1020;-50
2022/01/27 01:35:50;;;;;;;;;;;;;;;-2.46;72.42;95905.31;5073000;28;1228;-50
2022/01/27 01:38:18;;;;;;;;;;;;;;;-2.40;72.25;95903.28;5072864;28;965;-51
2022/01/27 01:40:48;;;;;;;;;;;;;;;-2.49;72.62;95895.78;5073046;28;1016;-50
2022/01/27 01:43:14;;;;;;;;;;;;;;;-2.42;72.24;95901.66;5072823;28;1020;-51
2022/01/27 01:45:41;;;;;;;;;;;;;;;-2.38;72.27;95892.75;5072939;28;1024;-50
2022/01/27 01:48:07;;;;;;;;;;;;;;;-2.47;72.98;95886.09;5073258;28;1001;-51
2022/01/27 01:50:33;;;;;;;;;;;;;;;-2.55;73.12;95890.81;5071277;28;1989;-51
2022/01/27 01:52:59;;;;;;;;;;;;;;;-2.47;72.70;95899.19;5072937;28;1043;-50
2022/01/27 01:55:25;;;;;;;;;;;;;;;-2.33;72.37;95890.78;5073781;28;1029;-50
2022/01/27 01:57:51;;;;;;;;;;;;;;;-2.47;73.36;95882.66;5076390;28;1029;-51
2022/01/27 02:00:18;;;;;;;;;;;;;;;-2.48;73.18;95886.19;5076252;28;1232;-52
2022/01/27 02:02:44;;;;;;;;;;;;;;;-2.51;73.40;95881.06;5075465;28;938;-50
2022/01/27 02:05:10;;;;;;;;;;;;;;;-2.50;73.19;95883.63;5076367;28;976;-50
2022/01/27 02:07:55;;;;;;;;;;;;;;;-2.58;73.18;95877.84;5076542;28;993;-50
2022/01/27 02:17:58;;;;;;;;;;;;;;;-2.43;72.90;95884.22;5076265;28;1064;-51
2022/01/27 02:18:28;;;;;;;;;;;;;;;-2.48;73.56;95888.81;5076033;28;1124;-51
2022/01/27 02:20:54;;;;;;;;;;;;;;;-2.55;74.07;95888.22;5076192;28;1005;-51
2022/01/27 02:23:20;;;;;;;;;;;;;;;-2.58;73.82;95883.97;5075835;28;1112;-50
2022/01/27 02:25:46;;;;;;;;;;;;;;;-2.59;74.12;95884.00;5075755;28;1037;-50
2022/01/27 02:28:12;;;;;;;;;;;;;;;-2.60;73.66;95877.94;5075869;28;1032;-50
2022/01/27 02:30:38;;;;;;;;;;;;;;;-2.52;73.45;95880.22;5075651;28;1909;-49
2022/01/27 02:33:04;;;;;;;;;;;;;;;-2.53;73.64;95883.75;5076113;28;1043;-50
2022/01/27 02:35:31;;;;;;;;;;;;;;;-2.51;73.81;95883.69;5075628;28;1162;-50
2022/01/27 02:37:58;;;;;;;;;;;;;;;-2.45;73.22;95880.81;5075719;28;1051;-50
2022/01/27 02:40:37;;;;;;;;;;;;;;;-2.47;73.15;95883.50;5075405;28;1081;-50
2022/01/27 02:43:04;;;;;;;;;;;;;;;-2.62;74.08;95889.38;5075936;28;1012;-50
2022/01/27 02:45:35;;;;;;;;;;;;;;;-2.70;74.22;95883.59;5075559;28;1051;-50
2022/01/27 02:48:01;;;;;;;;;;;;;;;-2.54;74.09;95892.53;5075655;28;1022;-51
2022/01/27 02:50:27;;;;;;;;;;;;;;;-2.51;73.80;95886.31;5075153;28;1984;-49
2022/01/27 02:52:53;;;;;;;;;;;;;;;-2.40;72.57;95889.34;5075402;28;1028;-51
2022/01/27 02:55:19;;;;;;;;;;;;;;;-2.52;73.17;95882.84;5075128;28;1001;-50
2022/01/27 02:57:45;;;;;;;;;;;;;;;-2.57;73.50;95879.56;5075485;28;1028;-51
2022/01/27 03:00:11;;;;;;;;;;;;;;;-2.51;73.24;95888.94;5075091;28;1100;-50
2022/01/27 03:02:37;;;;;;;;;;;;;;;-2.58;73.73;95886.56;5075387;28;996;-50
2022/01/27 03:05:04;;;;;;;;;;;;;;;-2.49;73.02;95889.72;5074833;28;1069;-50
2022/01/27 03:07:30;;;;;;;;;;;;;;;-2.46;73.67;95877.34;5074091;28;965;-50
2022/01/27 03:09:56;;;;;;;;;;;;;;;-2.43;73.63;95886.84;5074020;28;1009;-51
2022/01/27 03:12:27;;;;;;;;;;;;;;;-2.42;73.55;95883.31;5075215;28;1906;-50
2022/01/27 03:14:53;;;;;;;;;;;;;;;-2.27;72.81;95889.69;5074940;28;1112;-51
2022/01/27 03:17:19;;;;;;;;;;;;;;;-2.36;73.29;95883.88;5074922;28;1100;-50
2022/01/27 03:19:45;;;;;;;;;;;;;;;-2.40;73.59;95884.09;5075206;28;960;-51
2022/01/27 03:22:11;;;;;;;;;;;;;;;-2.39;73.94;95880.53;5074511;28;1022;-51
2022/01/27 03:24:37;;;;;;;;;;;;;;;-2.28;73.30;95878.31;5074886;28;981;-51
2022/01/27 03:27:07;;;;;;;;;;;;;;;-2.19;72.08;95877.94;5074905;28;1043;-51
2022/01/27 03:29:33;;;;;;;;;;;;;;;-2.14;72.57;95884.75;5074924;28;1060;-51
2022/01/27 03:31:59;;;;;;;;;;;;;;;-2.32;72.93;95889.84;5074773;28;1910;-50
2022/01/27 03:34:25;;;;;;;;;;;;;;;-2.40;72.98;95891.94;5074578;28;1045;-51
2022/01/27 03:36:51;;;;;;;;;;;;;;;-2.39;72.58;95883.16;5074623;28;1202;-50
2022/01/27 03:39:20;;;;;;;;;;;;;;;-2.41;72.66;95888.50;5074667;28;993;-51
2022/01/27 03:41:50;;;;;;;;;;;;;;;-2.47;72.99;95887.88;5074583;28;1039;-50
2022/01/27 03:44:18;;;;;;;;;;;;;;;-2.60;72.75;95883.16;5074444;28;1061;-51
2022/01/27 03:46:44;;;;;;;;;;;;;;;-2.66;70.81;95893.88;5074522;28;985;-51
2022/01/27 03:49:10;;;;;;;;;;;;;;;-2.75;72.52;95889.88;5074226;28;1188;-51
2022/01/27 03:51:36;;;;;;;;;;;;;;;-2.69;72.81;95888.78;5074014;28;1981;-50
2022/01/27 03:54:02;;;;;;;;;;;;;;;-2.69;72.62;95885.28;5074153;28;1038;-51
2022/01/27 03:56:28;;;;;;;;;;;;;;;-2.51;72.01;95873.22;5074266;28;1064;-49
2022/01/27 03:58:54;;;;;;;;;;;;;;;-2.49;72.41;95885.31;5074297;28;1056;-49
2022/01/27 04:01:20;;;;;;;;;;;;;;;-2.50;72.14;95882.75;5073734;28;1085;-50
2022/01/27 04:03:46;;;;;;;;;;;;;;;-2.34;72.19;95888.22;5074153;28;1068;-50
2022/01/27 04:06:19;;;;;;;;;;;;;;;-2.40;72.37;95894.56;5073966;28;1005;-50
2022/01/27 04:08:45;;;;;;;;;;;;;;;-2.33;72.56;95889.91;5073938;28;1105;-50
2022/01/27 04:11:11;;;;;;;;;;;;;;;-2.41;72.92;95891.13;5073630;28;1914;-51
2022/01/27 04:13:37;;;;;;;;;;;;;;;-2.35;72.97;95900.47;5074155;28;1071;-50
2022/01/27 04:16:04;;;;;;;;;;;;;;;-2.46;72.72;95906.16;5073767;28;981;-50
2022/01/27 04:18:30;;;;;;;;;;;;;;;-2.59;71.91;95904.97;5073456;28;1014;-51
2022/01/27 04:20:56;;;;;;;;;;;;;;;-2.71;71.80;95906.31;5073545;28;1028;-50
2022/01/27 04:23:22;;;;;;;;;;;;;;;-2.67;69.79;95896.56;5073877;28;1051;-50
2022/01/27 04:25:48;;;;;;;;;;;;;;;-2.57;70.03;95898.72;5073625;28;1132;-50
2022/01/27 04:28:21;;;;;;;;;;;;;;;-2.57;70.22;95901.34;5073206;28;1045;-51
2022/01/27 04:30:47;;;;;;;;;;;;;;;-2.60;70.80;95898.00;5073682;28;1910;-50
2022/01/27 04:33:14;;;;;;;;;;;;;;;-2.64;70.98;95899.91;5073520;28;965;-50
2022/01/27 04:35:46;;;;;;;;;;;;;;;-2.58;71.03;95904.91;5073463;28;1157;-50
2022/01/27 04:45:48;;;;;;;;;;;;;;;-2.55;71.54;95910.00;5073434;28;1029;-50
2022/01/27 04:48:17;;;;;;;;;;;;;;;-2.63;71.26;95904.22;5073104;28;1056;-48
2022/01/27 04:50:44;;;;;;;;;;;;;;;-2.70;71.29;95917.63;5073540;28;1989;-50
2022/01/27 04:53:20;;;;;;;;;;;;;;;-2.56;70.90;95903.06;5072963;28;1026;-50
2022/01/27 04:55:46;;;;;;;;;;;;;;;-2.57;70.69;95909.22;5073339;28;1105;-49
2022/01/27 04:58:17;;;;;;;;;;;;;;;-2.59;71.05;95916.28;5072767;28;1037;-51
2022/01/27 05:00:43;;;;;;;;;;;;;;;-2.51;70.86;95915.97;5072998;28;1117;-51
2022/01/27 05:03:30;;;;;;;;;;;;;;;-2.43;70.54;95918.25;5073019;28;1062;-50
2022/01/27 05:05:56;;;;;;;;;;;;;;;-2.61;71.44;95912.03;5073293;28;978;-51
2022/01/27 05:08:23;;;;;;;;;;;;;;;-2.67;71.90;95907.06;5072929;28;1022;-51
2022/01/27 05:13:29;;;;;;;;;;;;;;;-2.67;72.92;95917.53;5072801;28;1047;-51
2022/01/27 05:15:55;;;;;;;;;;;;;;;-2.49;71.92;95921.97;5073029;28;1042;-51
2022/01/27 05:18:21;;;;;;;;;;;;;;;-2.37;71.45;95921.50;5072933;28;1039;-50
2022/01/27 05:20:48;;;;;;;;;;;;;;;-2.36;71.22;95917.94;5073132;28;1040;-51
2022/01/27 05:23:15;;;;;;;;;;;;;;;-2.50;72.29;95924.66;5072815;28;1051;-51
2022/01/27 05:25:41;;;;;;;;;;;;;;;-2.58;72.16;95931.09;5073234;28;1033;-51
2022/01/27 05:28:07;;;;;;;;;;;;;;;-2.44;71.91;95921.81;5072831;28;1009;-51
2022/01/27 05:30:34;;;;;;;;;;;;;;;-2.48;72.23;95928.94;5076089;28;1905;-51
2022/01/27 05:33:00;;;;;;;;;;;;;;;-2.54;72.84;95929.19;5077184;28;1230;-50
2022/01/27 05:35:27;;;;;;;;;;;;;;;-2.47;72.27;95929.78;5077098;28;1158;-50
2022/01/27 05:37:53;;;;;;;;;;;;;;;-2.50;73.01;95924.66;5076664;28;1045;-50
2022/01/27 05:40:19;;;;;;;;;;;;;;;-2.51;73.02;95938.69;5076704;28;1037;-50
2022/01/27 05:42:45;;;;;;;;;;;;;;;-2.45;72.41;95936.66;5076882;28;981;-51
2022/01/27 05:45:11;;;;;;;;;;;;;;;-2.43;73.12;95936.59;5075757;28;965;-51
2022/01/27 05:47:37;;;;;;;;;;;;;;;-2.36;72.59;95933.66;5076561;28;1112;-51
2022/01/27 05:50:04;;;;;;;;;;;;;;;-2.20;71.84;95935.63;5076663;28;1875;-50
2022/01/27 05:52:31;;;;;;;;;;;;;;;-2.15;71.69;95931.06;5076509;28;1947;-50
2022/01/27 05:54:57;;;;;;;;;;;;;;;-2.22;71.64;95943.59;5076440;28;1022;-50
2022/01/27 05:57:24;;;;;;;;;;;;;;;-2.42;73.21;95946.16;5076318;28;1044;-50
2022/01/27 05:59:50;;;;;;;;;;;;;;;-2.33;72.43;95937.06;5076780;28;1060;-50
2022/01/27 06:02:16;;;;;;;;;;;;;;;-2.21;72.10;95941.81;5076261;28;1085;-50
2022/01/27 06:04:42;;;;;;;;;;;;;;;-2.37;72.91;95952.09;5076418;28;954;-50
2022/01/27 06:07:07;;;;;;;;;;;;;;;-2.35;72.94;95955.50;5076408;28;1048;-50
2022/01/27 06:09:33;;;;;;;;;;;;;;;-2.28;72.74;95954.28;5076307;28;1029;-50
2022/01/27 06:11:59;;;;;;;;;;;;;;;-2.25;72.92;95962.03;5076117;28;1982;-51
2022/01/27 06:14:25;;;;;;;;;;;;;;;-2.36;73.26;95959.00;5075922;28;1038;-50
2022/01/27 06:16:51;;;;;;;;;;;;;;;-2.31;73.31;95957.06;5076291;28;973;-50
2022/01/27 06:19:17;;;;;;;;;;;;;;;-2.22;72.69;95961.91;5076125;28;1021;-50
2022/01/27 06:21:44;;;;;;;;;;;;;;;-2.18;72.75;95958.25;5076377;28;1052;-50
2022/01/27 06:24:10;;;;;;;;;;;;;;;-2.19;73.11;95967.00;5076277;28;1030;-50
2022/01/27 06:26:37;;;;;;;;;;;;;;;-2.20;72.93;95973.19;5076475;28;1037;-50
2022/01/27 06:29:03;;;;;;;;;;;;;;;-2.25;73.44;95974.28;5075589;28;1037;-51
2022/01/27 06:31:29;;;;;;;;;;;;;;;-2.08;72.59;95965.72;5075862;28;1994;-51
2022/01/27 06:33:55;;;;;;;;;;;;;;;-1.93;71.83;95961.63;5074769;28;1035;-49
2022/01/27 06:36:21;;;;;;;;;;;;;;;-1.96;72.13;95960.81;5075683;28;1162;-49
2022/01/27 06:38:48;;;;;;;;;;;;;;;-1.94;71.85;95957.28;5075806;28;1037;-49
2022/01/27 06:41:14;;;;;;;;;;;;;;;-1.87;71.94;95966.59;5074509;28;974;-49
2022/01/27 06:43:40;;;;;;;;;;;;;;;-1.91;72.42;95970.25;5075797;28;1053;-48
2022/01/27 06:46:06;;;;;;;;;;;;;;;-2.02;73.37;95968.09;5075564;28;1101;-48
2022/01/27 06:48:32;;;;;;;;;;;;;;;-1.88;72.46;95965.72;5075426;28;1113;-49
2022/01/27 06:51:00;;;;;;;;;;;;;;;-1.89;72.38;95971.03;5075668;28;1988;-49
2022/01/27 06:53:26;;;;;;;;;;;;;;;-1.91;73.07;95976.34;5075307;28;1037;-48
2022/01/27 06:55:54;;;;;;;;;;;;;;;-1.77;72.45;95978.38;5075672;28;1040;-49
2022/01/27 06:58:20;;;;;;;;;;;;;;;-1.64;72.08;95976.06;5075455;28;1040;-48
2022/01/27 07:00:46;;;;;;;;;;;;;;;-1.73;72.60;95977.31;5075251;28;1258;-49
2022/01/27 07:03:12;;;;;;;;;;;;;;;-1.76;72.50;95980.09;5075360;28;974;-48
2022/01/27 07:05:39;;;;;;;;;;;;;;;-1.69;72.13;95980.66;5075134;28;1005;-48
2022/01/27 07:08:05;;;;;;;;;;;;;;;-1.65;72.36;95979.59;5075204;28;1037;-48
2022/01/27 07:10:31;;;;;;;;;;;;;;;-1.55;71.78;95977.47;5075204;28;2012;-49
2022/01/27 07:12:57;;;;;;;;;;;;;;;-1.69;72.74;95971.03;5075436;28;1001;-49
2022/01/27 07:15:23;;;;;;;;;;;;;;;-1.69;72.71;95971.03;5075165;28;977;-48
2022/01/27 07:17:50;;;;;;;;;;;;;;;-1.72;73.01;95973.78;5075120;28;1050;-49
2022/01/27 07:20:17;;;;;;;;;;;;;;;-1.68;73.11;95977.97;5075022;28;981;-48
2022/01/27 07:22:43;;;;;;;;;;;;;;;-1.57;73.17;95974.91;5075261;28;1041;-49
2022/01/27 07:25:10;;;;;;;;;;;;;;;-1.47;72.38;95977.97;5074708;28;1049;-51
2022/01/27 07:27:36;;;;;;;;;;;;;;;-1.43;71.95;95972.50;5074664;28;1123;-51
2022/01/27 07:30:03;;;;;;;;;;;;;;;-1.48;72.30;95977.13;5074755;28;1057;-51
2022/01/27 07:32:29;;;;;;;;;;;;;;;-1.44;72.09;95986.56;5074637;28;1983;-50
2022/01/27 07:34:55;;;;;;;;;;;;;;;-1.42;71.70;95978.63;5074522;28;1089;-51
2022/01/27 07:37:21;;;;;;;;;;;;;;;-1.39;71.74;95965.34;5074513;28;1157;-49
2022/01/27 07:39:47;;;;;;;;;;;;;;;-1.21;71.69;95980.28;5074676;28;1068;-48
2022/01/27 07:42:13;;;;;;;;;;;;;;;-1.16;71.24;95974.81;5074774;28;970;-49
2022/01/27 07:44:39;;;;;;;;;;;;;;;-1.10;70.93;95964.03;5074529;28;1048;-49
2022/01/27 07:47:05;;;;;;;;;;;;;;;-1.06;70.12;95965.59;5074537;28;1077;-48
2022/01/27 07:49:31;;;;;;;;;;;;;;;-1.02;70.26;95975.03;5074166;28;1905;-49
2022/01/27 07:51:57;;;;;;;;;;;;;;;-1.16;71.66;95974.81;5073572;28;1897;-49
2022/01/27 07:54:23;;;;;;;;;;;;;;;-1.04;71.24;95976.88;5074532;28;965;-49
2022/01/27 07:56:49;;;;;;;;;;;;;;;-1.01;71.63;95978.50;5074485;28;1082;-49
2022/01/27 07:59:15;;;;;;;;;;;;;;;-1.12;71.58;95975.50;5073875;28;1061;-49
2022/01/27 08:01:42;;;;;;;;;;;;;;;-1.07;71.12;95979.63;5073848;28;1200;-49
2022/01/27 08:04:08;;;;;;;;;;;;;;;-0.95;71.32;95986.09;5072999;28;957;-49
2022/01/27 08:06:34;;;;;;;;;;;;;;;-0.93;71.25;95984.28;5074108;28;1013;-49
2022/01/27 08:09:00;;;;;;;;;;;;;;;-0.96;71.68;95983.56;5074325;28;985;-49
2022/01/27 08:11:26;;;;;;;;;;;;;;;-0.82;70.72;95989.84;5073982;28;1983;-49
2022/01/27 08:13:52;;;;;;;;;;;;;;;-0.70;69.90;95983.19;5073969;28;1041;-49
2022/01/27 08:16:18;;;;;;;;;;;;;;;-0.63;69.62;95981.13;5073820;28;1039;-49
2022/01/27 08:18:44;;;;;;;;;;;;;;;-0.58;69.17;95988.78;5073841;28;1097;-47
2022/01/27 08:21:10;;;;;;;;;;;;;;;-0.70;70.59;95982.31;5073648;28;1141;-49
2022/01/27 08:23:38;;;;;;;;;;;;;;;-0.84;70.70;95990.84;5074124;28;993;-48
2022/01/27 08:26:07;;;;;;;;;;;;;;;-0.73;70.36;95985.94;5073653;28;992;-49
2022/01/27 08:29:07;;;;;;;;;;;;;;;-0.62;70.04;95990.72;5073762;28;1040;-48
2022/01/27 08:31:22;;;;;;;;;;;;;;;-0.48;69.16;95995.28;5073358;28;1914;-48
2022/01/27 08:33:48;;;;;;;;;;;;;;;-0.38;68.89;95996.53;5073503;28;1029;-49
2022/01/27 08:36:15;;;;;;;;;;;;;;;-0.32;68.78;95991.03;5073388;28;1281;-49
2022/01/27 08:38:43;;;;;;;;;;;;;;;-0.28;68.67;95994.34;5072446;28;1101;-49
2022/01/27 08:41:09;;;;;;;;;;;;;;;-0.28;68.35;95989.09;5073744;28;965;-49
2022/01/27 08:43:35;;;;;;;;;;;;;;;-0.22;67.79;96001.94;5073592;28;1113;-49
2022/01/27 08:46:01;;;;;;;;;;;;;;;-0.16;67.74;96000.78;5072495;28;1009;-49
2022/01/27 08:48:28;;;;;;;;;;;;;;;-0.16;67.80;96001.63;5073589;28;1045;-49
2022/01/27 08:51:09;;;;;;;;;;;;;;;-0.08;67.99;96009.13;5073218;28;1902;-49
2022/01/27 08:53:37;;;;;;;;;;;;;;;-0.22;68.18;96007.19;5073534;28;962;-49
2022/01/27 08:56:03;;;;;;;;;;;;;;;-0.26;68.48;96003.84;5073526;28;985;-49
2022/01/27 08:58:31;;;;;;;;;;;;;;;-0.36;68.86;96005.25;5071991;28;1056;-49
2022/01/27 09:00:57;;;;;;;;;;;;;;;-0.35;69.14;96012.19;5073133;28;1251;-49
2022/01/27 09:03:23;;;;;;;;;;;;;;;-0.49;69.39;96010.22;5073055;28;1034;-49
2022/01/27 09:05:49;;;;;;;;;;;;;;;-0.53;69.73;96010.41;5071879;28;1014;-48
2022/01/27 09:08:16;;;;;;;;;;;;;;;-0.46;69.70;96006.59;5072252;28;1032;-48
2022/01/27 09:10:42;;;;;;;;;;;;;;;-0.35;68.87;96011.34;5071817;28;1911;-49
2022/01/27 09:13:08;;;;;;;;;;;;;;;-0.17;68.59;96010.47;5073367;28;975;-49
2022/01/27 09:15:34;;;;;;;;;;;;;;;0.03;67.98;96005.97;5073234;28;1028;-48
2022/01/27 09:18:00;;;;;;;;;;;;;;;0.19;67.38;96007.78;5072959;28;1037;-48
2022/01/27 09:20:27;;;;;;;;;;;;;;;0.31;66.58;96019.44;5072895;28;1046;-48
2022/01/27 09:22:56;;;;;;;;;;;;;;;0.31;66.59;96003.66;5072857;28;1869;-48
2022/01/27 09:25:29;;;;;;;;;;;;;;;0.39;66.14;96005.91;5073251;28;998;-49
2022/01/27 09:27:56;;;;;;;;;;;;;;;0.47;66.13;95998.47;5072711;28;1072;-49
2022/01/27 09:30:22;;;;;;;;;;;;;;;0.52;65.42;96004.34;5072865;28;1049;-48
2022/01/27 09:32:48;;;;;;;;;;;;;;;0.56;66.24;96003.25;5071456;28;1914;-49
2022/01/27 09:35:15;;;;;;;;;;;;;;;0.54;65.81;95994.59;5072974;28;1217;-48
2022/01/27 09:37:41;;;;;;;;;;;;;;;0.63;65.96;95995.91;5072698;28;1093;-47
2022/01/27 09:40:07;;;;;;;;;;;;;;;0.73;65.75;95989.22;5072940;28;1040;-48
2022/01/27 09:42:36;;;;;;;;;;;;;;;0.66;66.18;95987.84;5073270;28;1045;-48
2022/01/27 09:45:04;;;;;;;;;;;;;;;0.66;65.88;95989.63;5072800;28;977;-48
2022/01/27 09:47:33;;;;;;;;;;;;;;;0.60;66.17;95980.25;5072885;28;1061;-48
2022/01/27 09:52:40;;;;;;;;;;;;;;;0.81;65.31;95974.81;5072812;28;1914;-48
2022/01/27 09:55:07;;;;;;;;;;;;;;;0.91;65.39;95963.72;5072658;28;1053;-48
2022/01/27 09:57:33;;;;;;;;;;;;;;;0.96;65.25;95966.91;5072311;28;1009;-47
2022/01/27 09:59:59;;;;;;;;;;;;;;;1.04;64.64;95953.34;5071497;28;1097;-48
2022/01/27 10:02:28;;;;;;;;;;;;;;;1.10;64.62;95953.03;5072305;28;1243;-48
2022/01/27 10:04:57;;;;;;;;;;;;;;;1.18;64.60;95957.88;5072515;28;1116;-48
2022/01/27 10:07:23;;;;;;;;;;;;;;;1.26;64.50;95957.44;5072495;28;965;-48
2022/01/27 10:09:55;;;;;;;;;;;;;;;1.29;64.20;95962.53;5072618;28;978;-48
2022/01/27 10:12:27;;;;;;;;;;;;;;;1.33;63.98;95967.56;5072496;28;1995;-48
2022/01/27 10:14:57;;;;;;;;;;;;;;;1.36;63.86;95962.09;5072665;28;1037;-48
2022/01/27 10:17:23;;;;;;;;;;;;;;;1.39;64.32;95968.16;5076191;28;1020;-48
2022/01/27 10:19:53;;;;;;;;;;;;;;;1.36;64.09;95966.53;5076164;28;1009;-48
2022/01/27 10:22:19;;;;;;;;;;;;;;;1.42;65.09;95966.19;5075956;28;985;-48
2022/01/27 10:24:45;;;;;;;;;;;;;;;1.42;64.49;95966.19;5074843;28;1036;-48
2022/01/27 10:27:32;;;;;;;;;;;;;;;1.49;64.42;95969.34;5075766;28;1227;-48
2022/01/27 10:32:44;;;;;;;;;;;;;;;1.40;65.04;95962.78;5075580;28;1993;-47
2022/01/27 10:35:12;;;;;;;;;;;;;;;1.46;64.24;95951.94;5075682;28;1069;-48
2022/01/27 10:37:56;;;;;;;;;;;;;;;1.52;64.11;95953.38;5055950;28;1018;-48
2022/01/27 10:40:41;;;;;;;;;;;;;;;1.55;64.06;95958.44;5054752;28;962;-48
2022/01/27 10:43:09;;;;;;;;;;;;;;;1.58;63.72;95947.75;5055820;28;1017;-48
2022/01/27 10:45:36;;;;;;;;;;;;;;;1.63;63.87;95945.72;5056155;28;1041;-48
2022/01/27 10:48:06;;;;;;;;;;;;;;;1.61;63.66;95950.19;5055393;28;1037;-48
2022/01/27 10:50:46;;;;;;;;;;;;;;;1.62;63.81;95943.16;5055907;28;1025;-48
2022/01/27 10:53:12;;;;;;;;;;;;;;;1.67;63.79;95949.88;5055388;28;1163;-48
2022/01/27 10:55:38;;;;;;;;;;;;;;;1.72;63.68;95939.88;5055380;28;1116;-47
2022/01/27 10:58:23;;;;;;;;;;;;;;;1.78;63.87;95945.75;5055018;28;1048;-47
2022/01/27 11:00:55;;;;;;;;;;;;;;;1.86;63.71;95936.47;5055251;28;1235;-48
2022/01/27 11:03:22;;;;;;;;;;;;;;;1.95;63.72;95933.31;5055071;28;1121;-47
2022/01/27 11:05:50;;;;;;;;;;;;;;;1.91;63.93;95936.19;5054092;28;1053;-48
2022/01/27 11:08:20;;;;;;;;;;;;;;;1.90;63.61;95930.06;5055037;28;961;-47
2022/01/27 11:10:49;;;;;;;;;;;;;;;1.86;63.88;95932.97;5055076;28;1987;-48
2022/01/27 11:13:17;;;;;;;;;;;;;;;1.89;63.92;95931.00;5053771;28;1077;-47
2022/01/27 11:15:44;;;;;;;;;;;;;;;1.93;64.21;95929.88;5055330;28;969;-47
2022/01/27 11:18:10;;;;;;;;;;;;;;;2.03;64.15;95927.59;5054902;28;981;-48
2022/01/27 11:26:08;;;;;;;;;;;;;;;2.40;63.42;95920.09;5054865;28;1024;-48
2022/01/27 11:28:35;;;;;;;;;;;;;;;2.53;62.41;95913.13;5053832;28;1032;-48
2022/01/27 11:31:24;;;;;;;;;;;;;;;2.63;62.10;95908.13;5055080;28;1989;-48
2022/01/27 11:33:59;;;;;;;;;;;;;;;2.69;61.67;95907.78;5054810;28;977;-48
2022/01/27 11:36:26;;;;;;;;;;;;;;;2.75;60.55;95903.88;5064801;28;1218;-48
2022/01/27 11:38:52;;;;;;;;;;;;;;;2.77;59.60;95901.16;5074499;28;1077;-48
2022/01/27 11:41:34;;;;;;;;;;;;;;;2.72;60.64;95906.72;5074559;28;1171;-48
2022/01/27 11:44:19;;;;;;;;;;;;;;;2.74;61.18;95908.31;5074334;28;1105;-48
2022/01/27 11:47:03;;;;;;;;;;;;;;;2.77;61.15;95904.66;5074398;28;1004;-48
2022/01/27 11:49:54;;;;;;;;;;;;;;;2.74;61.61;95903.03;5074372;28;1041;-48
2022/01/27 11:52:20;;;;;;;;;;;;;;;2.76;61.40;95908.25;5074588;28;1914;-48
2022/01/27 11:54:46;;;;;;;;;;;;;;;2.77;59.78;95899.38;5074139;28;1078;-48
2022/01/27 11:57:35;;;;;;;;;;;;;;;2.83;59.62;95899.00;5074252;28;1028;-47
2022/01/27 12:00:12;;;;;;;;;;;;;;;2.99;59.08;95906.81;5074062;28;1571;-48
2022/01/27 12:02:56;;;;;;;;;;;;;;;3.11;59.41;95898.13;5074203;28;969;-48
2022/01/27 12:05:26;;;;;;;;;;;;;;;3.18;59.30;95892.44;5073853;28;1059;-48
2022/01/27 12:08:11;;;;;;;;;;;;;;;3.23;59.67;95895.63;5074323;28;985;-48
2022/01/27 12:10:42;;;;;;;;;;;;;;;3.25;59.56;95884.00;5073857;28;1057;-48
2022/01/27 12:13:47;;;;;;;;;;;;;;;3.17;58.82;95886.31;5074154;28;1130;-48
2022/01/27 12:19:00;;;;;;;;;;;;;;;2.90;59.60;95871.25;5073706;28;1965;-47
2022/01/27 12:21:36;;;;;;;;;;;;;;;2.88;59.13;95870.50;5073736;28;1042;-48
2022/01/27 12:24:21;;;;;;;;;;;;;;;2.96;58.89;95870.03;5073616;28;985;-48
2022/01/27 12:26:47;;;;;;;;;;;;;;;3.01;58.69;95864.44;5074081;28;962;-48
2022/01/27 12:29:27;;;;;;;;;;;;;;;3.03;58.56;95863.38;5073483;28;1021;-48
2022/01/27 12:31:54;;;;;;;;;;;;;;;3.08;58.54;95863.09;5073568;28;1906;-48
2022/01/27 12:34:20;;;;;;;;;;;;;;;3.14;58.02;95860.06;5073592;28;977;-48
2022/01/27 12:36:52;;;;;;;;;;;;;;;3.13;58.63;95864.50;5073758;28;1217;-48
2022/01/27 12:39:20;;;;;;;;;;;;;;;3.07;57.38;95856.97;5073069;28;1038;-48
2022/01/27 12:41:48;;;;;;;;;;;;;;;3.16;57.47;95862.63;5073642;28;1036;-48
2022/01/27 12:44:14;;;;;;;;;;;;;;;3.32;57.72;95855.41;5073279;28;958;-48
2022/01/27 12:46:59;;;;;;;;;;;;;;;3.43;58.89;95849.41;5073581;28;1009;-48
2022/01/27 12:49:35;;;;;;;;;;;;;;;3.56;57.54;95852.09;5073378;28;1029;-48
2022/01/27 12:52:05;;;;;;;;;;;;;;;3.53;57.81;95850.50;5073326;28;1996;-48
2022/01/27 12:54:31;;;;;;;;;;;;;;;3.49;58.51;95843.69;5073304;28;1047;-48
2022/01/27 12:56:57;;;;;;;;;;;;;;;3.52;58.57;95833.78;5073373;28;1017;-47
2022/01/27 12:59:24;;;;;;;;;;;;;;;3.49;57.90;95836.63;5073046;28;973;-47
2022/01/27 13:02:00;;;;;;;;;;;;;;;3.46;57.79;95838.63;5073146;28;1132;-48
2022/01/27 13:04:27;;;;;;;;;;;;;;;3.38;57.71;95835.63;5073215;28;1105;-47
2022/01/27 13:06:55;;;;;;;;;;;;;;;3.37;57.99;95832.13;5073390;28;1016;-48
2022/01/27 13:09:21;;;;;;;;;;;;;;;3.41;57.62;95830.97;5073026;28;1033;-48
2022/01/27 13:11:50;;;;;;;;;;;;;;;3.46;57.59;95820.97;5073145;28;1898;-47
2022/01/27 13:14:16;;;;;;;;;;;;;;;3.49;57.50;95817.25;5073034;28;1030;-48
2022/01/27 13:16:45;;;;;;;;;;;;;;;3.49;57.95;95819.91;5072966;28;1080;-47
2022/01/27 13:19:29;;;;;;;;;;;;;;;3.51;58.20;95823.31;5073345;28;961;-48
2022/01/27 13:22:07;;;;;;;;;;;;;;;3.54;57.91;95812.53;5073409;28;1009;-47
2022/01/27 13:24:42;;;;;;;;;;;;;;;3.51;57.21;95815.38;5072968;28;1004;-48
2022/01/27 13:27:09;;;;;;;;;;;;;;;3.39;58.07;95824.13;5073006;28;959;-48
2022/01/27 13:29:40;;;;;;;;;;;;;;;3.41;57.82;95824.84;5072980;28;1071;-47
2022/01/27 13:32:07;;;;;;;;;;;;;;;3.48;57.35;95820.88;5072996;28;1986;-47
2022/01/27 13:34:33;;;;;;;;;;;;;;;3.36;57.46;95822.53;5073176;28;1044;-48
2022/01/27 13:37:01;;;;;;;;;;;;;;;3.30;58.00;95823.78;5072622;28;1158;-48
2022/01/27 13:41:53;;;;;;;;;;;;;;;3.28;58.85;95819.53;5072707;28;1096;-47
2022/01/27 13:44:20;;;;;;;;;;;;;;;3.25;58.95;95819.75;5073084;28;1036;-47
2022/01/27 13:46:48;;;;;;;;;;;;;;;3.23;58.93;95826.94;5072681;28;1032;-48
2022/01/27 13:49:18;;;;;;;;;;;;;;;3.22;59.66;95827.84;5072958;28;1071;-48
2022/01/27 13:51:47;;;;;;;;;;;;;;;3.20;59.61;95830.59;5076225;28;1986;-48
2022/01/27 13:54:14;;;;;;;;;;;;;;;3.24;59.71;95836.53;5076552;28;924;-47
2022/01/27 13:56:41;;;;;;;;;;;;;;;3.32;59.21;95832.44;5076757;28;966;-47
2022/01/27 13:59:13;;;;;;;;;;;;;;;3.32;59.62;95836.91;5076529;28;969;-48
2022/01/27 14:01:39;;;;;;;;;;;;;;;3.26;59.80;95837.28;5076183;28;1247;-47
2022/01/27 14:04:05;;;;;;;;;;;;;;;3.22;60.09;95836.63;5076380;28;1081;-47
2022/01/27 14:06:31;;;;;;;;;;;;;;;3.22;59.40;95841.06;5076201;28;1016;-47
2022/01/27 14:08:58;;;;;;;;;;;;;;;3.20;60.05;95841.16;5076513;28;1042;-46
2022/01/27 14:11:35;;;;;;;;;;;;;;;3.14;59.80;95833.63;5108393;28;1914;-46